ETH673 RJAA-RKSI
Flight info
| Callsign | ETH673 |
|---|---|
| Flight time | 1h 52m |
| Altitude | 31000 |
| Route | TETRA8 ENPAR Y16 SAPRA Y685 GUKDO GUKDO3C |
| Aircraft | A359/H-SDE2E3GHIJ3J4J5LM1ORWXY/LB1D1 |
Departure
| Time | 2026-05-04 23:03 |
|---|---|
| Airport | Narita International Airport (RJAA) |
Arrival
| Time | 2026-05-05 00:55 |
|---|---|
| Airport | Incheon International Airport (RKSI) |
| Time | Latitude | Longitude | Altitude | Speed | Heading |
|---|---|---|---|---|---|
| 2026-05-04 22:43 | 35.75824 | 140.38642 | 150 ft | 0 kts | 11° |
| 2026-05-04 22:51 | 35.75805 | 140.38637 | 150 ft | 3 kts | 13° |
| 2026-05-04 22:51 | 35.75786 | 140.38631 | 150 ft | 3 kts | 12° |
| 2026-05-04 22:52 | 35.75766 | 140.38626 | 150 ft | 3 kts | 12° |
| 2026-05-04 22:52 | 35.75746 | 140.38621 | 150 ft | 3 kts | 15° |
| 2026-05-04 22:52 | 35.75727 | 140.38614 | 150 ft | 3 kts | 24° |
| 2026-05-04 22:52 | 35.75711 | 140.38604 | 150 ft | 3 kts | 44° |
| 2026-05-04 22:53 | 35.75703 | 140.38596 | 150 ft | 3 kts | 81° |
| 2026-05-04 22:53 | 35.75698 | 140.38599 | 150 ft | 3 kts | 122° |
| 2026-05-04 22:53 | 35.75700 | 140.38596 | 150 ft | 2 kts | 134° |
| 2026-05-04 22:53 | 35.75713 | 140.38580 | 150 ft | 3 kts | 139° |
| 2026-05-04 22:54 | 35.75729 | 140.38564 | 150 ft | 3 kts | 145° |
| 2026-05-04 22:54 | 35.75746 | 140.38551 | 150 ft | 3 kts | 149° |
| 2026-05-04 22:54 | 35.75763 | 140.38538 | 150 ft | 2 kts | 148° |
| 2026-05-04 22:54 | 35.75765 | 140.38537 | 150 ft | 4 kts | 148° |
| 2026-05-04 22:55 | 35.75744 | 140.38553 | 150 ft | 0 kts | 148° |
| 2026-05-04 22:56 | 35.75710 | 140.38579 | 150 ft | 11 kts | 148° |
| 2026-05-04 22:57 | 35.75626 | 140.38640 | 150 ft | 15 kts | 148° |
| 2026-05-04 22:57 | 35.75528 | 140.38709 | 150 ft | 18 kts | 150° |
| 2026-05-04 22:57 | 35.75421 | 140.38787 | 150 ft | 14 kts | 149° |
| 2026-05-04 22:57 | 35.75339 | 140.38846 | 151 ft | 14 kts | 149° |
| 2026-05-04 22:58 | 35.75242 | 140.38864 | 151 ft | 16 kts | 199° |
| 2026-05-04 22:58 | 35.75133 | 140.38807 | 151 ft | 18 kts | 201° |
| 2026-05-04 22:58 | 35.75014 | 140.38838 | 151 ft | 19 kts | 150° |
| 2026-05-04 22:58 | 35.74907 | 140.38914 | 151 ft | 11 kts | 149° |
| 2026-05-04 22:59 | 35.74832 | 140.38969 | 151 ft | 14 kts | 149° |
| 2026-05-04 22:59 | 35.74737 | 140.39037 | 151 ft | 17 kts | 150° |
| 2026-05-04 22:59 | 35.74628 | 140.39116 | 150 ft | 17 kts | 150° |
| 2026-05-04 22:59 | 35.74553 | 140.39170 | 150 ft | 11 kts | 149° |
| 2026-05-04 23:00 | 35.74484 | 140.39218 | 150 ft | 11 kts | 155° |
| 2026-05-04 23:00 | 35.74408 | 140.39199 | 150 ft | 13 kts | 227° |
| 2026-05-04 23:00 | 35.74370 | 140.39107 | 148 ft | 8 kts | 261° |
| 2026-05-04 23:00 | 35.74387 | 140.39041 | 148 ft | 9 kts | 308° |
| 2026-05-04 23:01 | 35.74422 | 140.39008 | 148 ft | 0 kts | 329° |
| 2026-05-04 23:02 | 35.74479 | 140.38967 | 149 ft | 35 kts | 329° |
| 2026-05-04 23:02 | 35.74717 | 140.38795 | 151 ft | 84 kts | 329° |
| 2026-05-04 23:02 | 35.75735 | 140.38064 | 173 ft | 165 kts | 329° |
| 2026-05-04 23:03 | 35.76411 | 140.37571 | 593 ft | 172 kts | 327° |
| 2026-05-04 23:03 | 35.77439 | 140.36812 | 1884 ft | 174 kts | 315° |
| 2026-05-04 23:03 | 35.78507 | 140.36044 | 2542 ft | 177 kts | 313° |
| 2026-05-04 23:03 | 35.79575 | 140.35287 | 3264 ft | 174 kts | 310° |
| 2026-05-04 23:04 | 35.81023 | 140.34201 | 3852 ft | 199 kts | 310° |
| 2026-05-04 23:04 | 35.81859 | 140.33550 | 4046 ft | 219 kts | 313° |
| 2026-05-04 23:04 | 35.83222 | 140.32529 | 4408 ft | 246 kts | 315° |
| 2026-05-04 23:04 | 35.84752 | 140.31429 | 5007 ft | 260 kts | 317° |
| 2026-05-04 23:05 | 35.86341 | 140.30306 | 5791 ft | 265 kts | 318° |
| 2026-05-04 23:05 | 35.88008 | 140.29218 | 6508 ft | 281 kts | 326° |
| 2026-05-04 23:05 | 35.89998 | 140.28768 | 6883 ft | 303 kts | 352° |
| 2026-05-04 23:05 | 35.92105 | 140.29357 | 7187 ft | 324 kts | 18° |
| 2026-05-04 23:06 | 35.93958 | 140.31015 | 7855 ft | 337 kts | 45° |
| 2026-05-04 23:06 | 35.95199 | 140.33471 | 8841 ft | 340 kts | 70° |
| 2026-05-04 23:06 | 35.95655 | 140.36319 | 9755 ft | 338 kts | 95° |
| 2026-05-04 23:06 | 35.95312 | 140.39171 | 10447 ft | 340 kts | 112° |
| 2026-05-04 23:07 | 35.94425 | 140.41917 | 10786 ft | 350 kts | 129° |
| 2026-05-04 23:07 | 35.92807 | 140.44066 | 11124 ft | 346 kts | 155° |
| 2026-05-04 23:07 | 35.90621 | 140.45166 | 11525 ft | 336 kts | 180° |
| 2026-05-04 23:07 | 35.88346 | 140.45032 | 12166 ft | 324 kts | 200° |
| 2026-05-04 23:08 | 35.86148 | 140.44383 | 12863 ft | 325 kts | 204° |
| 2026-05-04 23:08 | 35.84077 | 140.43303 | 13580 ft | 320 kts | 216° |
| 2026-05-04 23:08 | 35.82361 | 140.41597 | 14274 ft | 315 kts | 232° |
| 2026-05-04 23:08 | 35.81193 | 140.39334 | 14935 ft | 314 kts | 247° |
| 2026-05-04 23:09 | 35.80767 | 140.36686 | 15572 ft | 321 kts | 265° |
| 2026-05-04 23:09 | 35.80648 | 140.33929 | 16161 ft | 322 kts | 258° |
| 2026-05-04 23:09 | 35.80330 | 140.31225 | 16809 ft | 325 kts | 260° |
| 2026-05-04 23:09 | 35.80110 | 140.28465 | 17460 ft | 329 kts | 262° |
| 2026-05-04 23:10 | 35.80009 | 140.25620 | 18109 ft | 334 kts | 265° |
| 2026-05-04 23:10 | 35.80043 | 140.22742 | 18702 ft | 339 kts | 268° |
| 2026-05-04 23:10 | 35.80147 | 140.20815 | 19070 ft | 342 kts | 270° |
| 2026-05-04 23:10 | 35.80256 | 140.19504 | 19316 ft | 345 kts | 271° |
| 2026-05-04 23:11 | 35.80615 | 140.16626 | 19872 ft | 351 kts | 275° |
| 2026-05-04 23:11 | 35.81171 | 140.13672 | 20445 ft | 357 kts | 279° |
| 2026-05-04 23:11 | 35.81882 | 140.10715 | 21018 ft | 361 kts | 278° |
| 2026-05-04 23:11 | 35.82340 | 140.07731 | 21579 ft | 358 kts | 271° |
| 2026-05-04 23:12 | 35.82547 | 140.04671 | 22143 ft | 360 kts | 269° |
| 2026-05-04 23:12 | 35.82773 | 140.01570 | 22711 ft | 366 kts | 272° |
| 2026-05-04 23:12 | 35.83252 | 139.98459 | 23288 ft | 374 kts | 278° |
| 2026-05-04 23:12 | 35.83984 | 139.95351 | 23846 ft | 380 kts | 279° |
| 2026-05-04 23:13 | 35.84746 | 139.92215 | 24349 ft | 383 kts | 279° |
| 2026-05-04 23:13 | 35.85480 | 139.89058 | 24900 ft | 384 kts | 278° |
| 2026-05-04 23:13 | 35.86196 | 139.85875 | 25447 ft | 386 kts | 278° |
| 2026-05-04 23:13 | 35.86902 | 139.82669 | 25989 ft | 388 kts | 277° |
| 2026-05-04 23:14 | 35.87612 | 139.79447 | 26549 ft | 390 kts | 277° |
| 2026-05-04 23:14 | 35.88315 | 139.76205 | 27122 ft | 392 kts | 277° |
| 2026-05-04 23:14 | 35.89015 | 139.72938 | 27663 ft | 395 kts | 277° |
| 2026-05-04 23:14 | 35.89714 | 139.69653 | 28177 ft | 397 kts | 277° |
| 2026-05-04 23:15 | 35.90417 | 139.66345 | 28706 ft | 400 kts | 276° |
| 2026-05-04 23:15 | 35.91124 | 139.63016 | 29227 ft | 402 kts | 276° |
| 2026-05-04 23:15 | 35.91759 | 139.59697 | 29708 ft | 401 kts | 272° |
| 2026-05-04 23:15 | 35.92235 | 139.56303 | 30206 ft | 403 kts | 271° |
| 2026-05-04 23:16 | 35.92684 | 139.52839 | 30625 ft | 405 kts | 271° |
| 2026-05-04 23:16 | 35.93104 | 139.49444 | 30998 ft | 407 kts | 271° |
| 2026-05-04 23:16 | 35.93524 | 139.45971 | 31181 ft | 411 kts | 271° |
| 2026-05-04 23:16 | 35.93943 | 139.42473 | 31208 ft | 414 kts | 271° |
| 2026-05-04 23:17 | 35.94793 | 139.35421 | 31211 ft | 417 kts | 271° |
| 2026-05-04 23:17 | 35.95222 | 139.31831 | 31211 ft | 428 kts | 271° |
| 2026-05-04 23:17 | 35.95659 | 139.28164 | 31207 ft | 436 kts | 271° |
| 2026-05-04 23:18 | 35.96557 | 139.20658 | 31205 ft | 444 kts | 271° |
| 2026-05-04 23:18 | 35.97471 | 139.13116 | 31202 ft | 444 kts | 271° |
| 2026-05-04 23:19 | 35.98369 | 139.05630 | 31199 ft | 443 kts | 271° |
| 2026-05-04 23:19 | 35.99260 | 138.98115 | 31195 ft | 442 kts | 271° |
| 2026-05-04 23:20 | 36.00141 | 138.90597 | 31196 ft | 441 kts | 271° |
| 2026-05-04 23:20 | 36.00477 | 138.83121 | 31201 ft | 435 kts | 265° |
| 2026-05-04 23:21 | 36.00596 | 138.75654 | 31207 ft | 433 kts | 265° |
| 2026-05-04 23:21 | 36.00661 | 138.68271 | 31195 ft | 432 kts | 265° |
| 2026-05-04 23:22 | 36.00719 | 138.60854 | 31201 ft | 431 kts | 265° |
| 2026-05-04 23:22 | 36.00786 | 138.53447 | 31202 ft | 431 kts | 265° |
| 2026-05-04 23:23 | 36.00852 | 138.46059 | 31200 ft | 429 kts | 265° |
| 2026-05-04 23:23 | 36.00911 | 138.38690 | 31203 ft | 429 kts | 265° |
| 2026-05-04 23:24 | 36.00966 | 138.31331 | 31201 ft | 428 kts | 265° |
| 2026-05-04 23:24 | 36.01016 | 138.23984 | 31204 ft | 427 kts | 265° |
| 2026-05-04 23:25 | 36.01067 | 138.16646 | 31210 ft | 427 kts | 265° |
| 2026-05-04 23:25 | 36.01109 | 138.09370 | 31208 ft | 426 kts | 265° |
| 2026-05-04 23:26 | 36.01142 | 138.02065 | 31207 ft | 425 kts | 265° |
| 2026-05-04 23:26 | 36.01174 | 137.94758 | 31203 ft | 424 kts | 265° |
| 2026-05-04 23:27 | 36.01203 | 137.87448 | 31204 ft | 425 kts | 265° |
| 2026-05-04 23:27 | 36.01229 | 137.80132 | 31211 ft | 426 kts | 265° |
| 2026-05-04 23:28 | 36.01248 | 137.72800 | 31210 ft | 427 kts | 265° |
| 2026-05-04 23:28 | 36.01265 | 137.65509 | 31205 ft | 427 kts | 265° |
| 2026-05-04 23:29 | 36.01279 | 137.58177 | 31208 ft | 427 kts | 265° |
| 2026-05-04 23:29 | 36.01283 | 137.50833 | 31205 ft | 427 kts | 265° |
| 2026-05-04 23:30 | 36.01287 | 137.43484 | 31203 ft | 427 kts | 265° |
| 2026-05-04 23:30 | 36.01283 | 137.36137 | 31201 ft | 428 kts | 265° |
| 2026-05-04 23:31 | 36.01273 | 137.28824 | 31197 ft | 428 kts | 265° |
| 2026-05-04 23:31 | 36.01261 | 137.21464 | 31203 ft | 429 kts | 265° |
| 2026-05-04 23:32 | 36.01244 | 137.14081 | 31198 ft | 430 kts | 265° |
| 2026-05-04 23:32 | 36.01224 | 137.06698 | 31203 ft | 430 kts | 265° |
| 2026-05-04 23:33 | 36.01199 | 136.99321 | 31202 ft | 430 kts | 265° |
| 2026-05-04 23:33 | 36.01181 | 136.95617 | 31312 ft | 432 kts | 267° |
| 2026-05-04 23:33 | 36.01160 | 136.91941 | 31197 ft | 434 kts | 267° |
| 2026-05-04 23:34 | 36.01127 | 136.84545 | 31201 ft | 437 kts | 267° |
| 2026-05-04 23:34 | 36.01096 | 136.77023 | 31207 ft | 438 kts | 267° |
| 2026-05-04 23:35 | 36.01055 | 136.69477 | 31207 ft | 439 kts | 267° |
| 2026-05-04 23:35 | 36.01002 | 136.61917 | 31206 ft | 440 kts | 267° |
| 2026-05-04 23:36 | 36.00945 | 136.54378 | 31220 ft | 441 kts | 267° |
| 2026-05-04 23:36 | 36.00885 | 136.46794 | 31218 ft | 442 kts | 267° |
| 2026-05-04 23:37 | 36.00823 | 136.39244 | 31225 ft | 443 kts | 267° |
| 2026-05-04 23:37 | 36.00756 | 136.31631 | 31225 ft | 443 kts | 267° |
| 2026-05-04 23:38 | 36.00679 | 136.24005 | 31232 ft | 444 kts | 267° |
| 2026-05-04 23:38 | 36.00600 | 136.16369 | 31226 ft | 445 kts | 267° |
| 2026-05-04 23:39 | 36.00515 | 136.08720 | 31225 ft | 446 kts | 267° |
| 2026-05-04 23:39 | 36.00427 | 136.01084 | 31218 ft | 447 kts | 267° |
| 2026-05-04 23:40 | 36.00332 | 135.93389 | 31222 ft | 448 kts | 268° |
| 2026-05-04 23:40 | 36.00233 | 135.85691 | 31232 ft | 448 kts | 268° |
| 2026-05-04 23:41 | 36.00129 | 135.77978 | 31229 ft | 449 kts | 268° |
| 2026-05-04 23:41 | 36.00020 | 135.70307 | 31234 ft | 450 kts | 267° |
| 2026-05-04 23:42 | 35.99906 | 135.62581 | 31225 ft | 450 kts | 267° |
| 2026-05-04 23:42 | 35.99786 | 135.54835 | 31221 ft | 451 kts | 267° |
| 2026-05-04 23:43 | 35.99661 | 135.47077 | 31228 ft | 452 kts | 267° |
| 2026-05-04 23:43 | 35.99530 | 135.39312 | 31227 ft | 453 kts | 268° |
| 2026-05-04 23:44 | 35.99395 | 135.31517 | 31221 ft | 454 kts | 268° |
| 2026-05-04 23:44 | 35.99255 | 135.23769 | 31230 ft | 454 kts | 267° |
| 2026-05-04 23:45 | 35.99109 | 135.15957 | 31223 ft | 455 kts | 267° |
| 2026-05-04 23:45 | 35.98957 | 135.08129 | 31221 ft | 455 kts | 267° |
| 2026-05-04 23:46 | 35.98801 | 135.00304 | 31222 ft | 456 kts | 267° |
| 2026-05-04 23:46 | 35.98639 | 134.92464 | 31230 ft | 457 kts | 267° |
| 2026-05-04 23:47 | 35.98473 | 134.84668 | 31224 ft | 458 kts | 268° |
| 2026-05-04 23:47 | 35.98301 | 134.76800 | 31226 ft | 458 kts | 267° |
| 2026-05-04 23:48 | 35.98118 | 134.68928 | 31217 ft | 459 kts | 267° |
| 2026-05-04 23:48 | 35.97936 | 134.61038 | 31215 ft | 460 kts | 268° |
| 2026-05-04 23:49 | 35.97747 | 134.53126 | 31223 ft | 460 kts | 267° |
| 2026-05-04 23:49 | 35.97553 | 134.45228 | 31221 ft | 461 kts | 267° |
| 2026-05-04 23:50 | 35.97352 | 134.37314 | 31221 ft | 461 kts | 267° |
| 2026-05-04 23:50 | 35.97146 | 134.29388 | 31212 ft | 462 kts | 267° |
| 2026-05-04 23:51 | 35.96936 | 134.21502 | 31217 ft | 462 kts | 267° |
| 2026-05-04 23:51 | 35.96719 | 134.13562 | 31211 ft | 463 kts | 267° |
| 2026-05-04 23:52 | 35.96496 | 134.05608 | 31217 ft | 464 kts | 267° |
| 2026-05-04 23:52 | 35.96307 | 133.98988 | 31216 ft | 464 kts | 267° |
| 2026-05-04 23:53 | 35.96078 | 133.91021 | 31205 ft | 465 kts | 267° |
| 2026-05-04 23:53 | 35.95839 | 133.83028 | 31214 ft | 465 kts | 267° |
| 2026-05-04 23:54 | 35.95591 | 133.75040 | 31205 ft | 465 kts | 267° |
| 2026-05-04 23:54 | 35.95340 | 133.67057 | 31211 ft | 466 kts | 267° |
| 2026-05-04 23:55 | 35.95086 | 133.59125 | 31210 ft | 466 kts | 267° |
| 2026-05-04 23:56 | 35.94691 | 133.47116 | 31214 ft | 467 kts | 267° |
| 2026-05-04 23:56 | 35.94422 | 133.39105 | 31200 ft | 467 kts | 267° |
| 2026-05-04 23:57 | 35.94147 | 133.31101 | 31206 ft | 467 kts | 267° |
| 2026-05-04 23:57 | 35.93866 | 133.23080 | 31201 ft | 468 kts | 267° |
| 2026-05-04 23:58 | 35.93581 | 133.15068 | 31201 ft | 468 kts | 267° |
| 2026-05-04 23:58 | 35.93289 | 133.07036 | 31202 ft | 468 kts | 267° |
| 2026-05-04 23:59 | 35.92991 | 132.98998 | 31198 ft | 469 kts | 267° |
| 2026-05-04 23:59 | 35.92690 | 132.91006 | 31206 ft | 469 kts | 267° |
| 2026-05-05 00:00 | 35.92382 | 132.82972 | 31208 ft | 469 kts | 266° |
| 2026-05-05 00:00 | 35.92068 | 132.74917 | 31195 ft | 470 kts | 266° |
| 2026-05-05 00:01 | 35.91748 | 132.66868 | 31193 ft | 470 kts | 266° |
| 2026-05-05 00:01 | 35.91424 | 132.58821 | 31200 ft | 470 kts | 266° |
| 2026-05-05 00:02 | 35.91093 | 132.50756 | 31196 ft | 471 kts | 266° |
| 2026-05-05 00:02 | 35.90757 | 132.42689 | 31194 ft | 471 kts | 266° |
| 2026-05-05 00:03 | 35.90415 | 132.34624 | 31191 ft | 471 kts | 266° |
| 2026-05-05 00:03 | 35.90067 | 132.26547 | 31198 ft | 471 kts | 266° |
| 2026-05-05 00:04 | 35.89716 | 132.18522 | 31183 ft | 472 kts | 266° |
| 2026-05-05 00:04 | 35.89358 | 132.10443 | 31194 ft | 472 kts | 266° |
| 2026-05-05 00:05 | 35.88993 | 132.02361 | 31182 ft | 472 kts | 266° |
| 2026-05-05 00:05 | 35.88624 | 131.94279 | 31186 ft | 472 kts | 266° |
| 2026-05-05 00:06 | 35.88248 | 131.86175 | 31180 ft | 472 kts | 266° |
| 2026-05-05 00:06 | 35.87867 | 131.78088 | 31184 ft | 473 kts | 266° |
| 2026-05-05 00:07 | 35.87483 | 131.70045 | 31186 ft | 473 kts | 266° |
| 2026-05-05 00:07 | 35.87091 | 131.61945 | 31185 ft | 473 kts | 266° |
| 2026-05-05 00:08 | 35.86692 | 131.53835 | 31174 ft | 473 kts | 266° |
| 2026-05-05 00:08 | 35.86289 | 131.45730 | 31186 ft | 473 kts | 266° |
| 2026-05-05 00:09 | 35.85880 | 131.37634 | 31175 ft | 474 kts | 266° |
| 2026-05-05 00:09 | 35.85465 | 131.29524 | 31184 ft | 474 kts | 266° |
| 2026-05-05 00:10 | 35.85045 | 131.21415 | 31181 ft | 474 kts | 266° |
| 2026-05-05 00:10 | 35.84619 | 131.13295 | 31180 ft | 474 kts | 266° |
| 2026-05-05 00:11 | 35.84187 | 131.05176 | 31167 ft | 475 kts | 265° |
| 2026-05-05 00:11 | 35.83750 | 130.97049 | 31173 ft | 475 kts | 265° |
| 2026-05-05 00:12 | 35.83307 | 130.88931 | 31168 ft | 475 kts | 265° |
| 2026-05-05 00:12 | 35.82861 | 130.80848 | 31166 ft | 475 kts | 265° |
| 2026-05-05 00:13 | 35.82570 | 130.72709 | 31174 ft | 476 kts | 271° |
| 2026-05-05 00:13 | 35.83341 | 130.64602 | 31163 ft | 477 kts | 277° |
| 2026-05-05 00:14 | 35.84362 | 130.56522 | 31167 ft | 477 kts | 278° |
| 2026-05-05 00:14 | 35.85415 | 130.48442 | 31173 ft | 477 kts | 277° |
| 2026-05-05 00:15 | 35.86449 | 130.40351 | 31164 ft | 478 kts | 277° |
| 2026-05-05 00:15 | 35.87462 | 130.32265 | 31173 ft | 478 kts | 277° |
| 2026-05-05 00:16 | 35.88469 | 130.24163 | 31175 ft | 478 kts | 277° |
| 2026-05-05 00:16 | 35.89470 | 130.16060 | 31165 ft | 478 kts | 277° |
| 2026-05-05 00:17 | 35.90467 | 130.07950 | 31164 ft | 478 kts | 277° |
| 2026-05-05 00:17 | 35.91459 | 129.99834 | 31163 ft | 478 kts | 277° |
| 2026-05-05 00:18 | 35.92446 | 129.91714 | 31169 ft | 478 kts | 277° |
| 2026-05-05 00:18 | 35.93427 | 129.83601 | 31169 ft | 478 kts | 277° |
| 2026-05-05 00:19 | 35.94400 | 129.75512 | 31164 ft | 479 kts | 277° |
| 2026-05-05 00:19 | 35.95370 | 129.67385 | 31163 ft | 479 kts | 277° |
| 2026-05-05 00:20 | 35.96336 | 129.59241 | 31165 ft | 479 kts | 277° |
| 2026-05-05 00:20 | 35.97491 | 129.51132 | 31157 ft | 480 kts | 283° |
| 2026-05-05 00:21 | 36.00082 | 129.43572 | 31163 ft | 486 kts | 298° |
| 2026-05-05 00:21 | 36.03874 | 129.36633 | 31161 ft | 488 kts | 302° |
| 2026-05-05 00:22 | 36.07846 | 129.29831 | 31163 ft | 488 kts | 303° |
| 2026-05-05 00:22 | 36.11824 | 129.23018 | 31160 ft | 488 kts | 303° |
| 2026-05-05 00:23 | 36.15774 | 129.16174 | 31159 ft | 489 kts | 303° |
| 2026-05-05 00:23 | 36.19708 | 129.09317 | 31160 ft | 489 kts | 303° |
| 2026-05-05 00:24 | 36.23623 | 129.02476 | 31163 ft | 489 kts | 303° |
| 2026-05-05 00:24 | 36.27562 | 128.95581 | 31160 ft | 490 kts | 303° |
| 2026-05-05 00:25 | 36.31496 | 128.88677 | 31162 ft | 490 kts | 303° |
| 2026-05-05 00:25 | 36.35427 | 128.81775 | 31161 ft | 491 kts | 303° |
| 2026-05-05 00:26 | 36.38572 | 128.76243 | 31162 ft | 491 kts | 303° |
| 2026-05-05 00:26 | 36.42498 | 128.69309 | 31163 ft | 491 kts | 303° |
| 2026-05-05 00:27 | 36.46409 | 128.62393 | 31164 ft | 492 kts | 303° |
| 2026-05-05 00:27 | 36.50344 | 128.55429 | 31166 ft | 493 kts | 303° |
| 2026-05-05 00:28 | 36.54264 | 128.48476 | 30932 ft | 482 kts | 303° |
| 2026-05-05 00:28 | 36.56160 | 128.45111 | 30689 ft | 468 kts | 303° |
| 2026-05-05 00:28 | 36.58003 | 128.41834 | 30454 ft | 456 kts | 303° |
| 2026-05-05 00:28 | 36.59802 | 128.38634 | 30199 ft | 448 kts | 303° |
| 2026-05-05 00:29 | 36.61587 | 128.35452 | 29912 ft | 448 kts | 303° |
| 2026-05-05 00:29 | 36.63365 | 128.32276 | 29636 ft | 447 kts | 303° |
| 2026-05-05 00:29 | 36.65153 | 128.29109 | 29352 ft | 446 kts | 304° |
| 2026-05-05 00:29 | 36.66922 | 128.26000 | 29075 ft | 445 kts | 304° |
| 2026-05-05 00:30 | 36.68715 | 128.22862 | 28802 ft | 444 kts | 304° |
| 2026-05-05 00:30 | 36.70503 | 128.19729 | 28530 ft | 443 kts | 304° |
| 2026-05-05 00:30 | 36.72279 | 128.16616 | 28154 ft | 438 kts | 304° |
| 2026-05-05 00:30 | 36.74032 | 128.13544 | 27633 ft | 433 kts | 304° |
| 2026-05-05 00:31 | 36.75767 | 128.10493 | 27078 ft | 429 kts | 304° |
| 2026-05-05 00:31 | 36.77483 | 128.07466 | 26532 ft | 426 kts | 304° |
| 2026-05-05 00:31 | 36.79189 | 128.04454 | 25993 ft | 423 kts | 304° |
| 2026-05-05 00:31 | 36.80881 | 128.01464 | 25439 ft | 421 kts | 304° |
| 2026-05-05 00:32 | 36.82566 | 127.98483 | 24896 ft | 418 kts | 304° |
| 2026-05-05 00:32 | 36.84238 | 127.95521 | 24338 ft | 417 kts | 304° |
| 2026-05-05 00:32 | 36.85907 | 127.92578 | 23786 ft | 415 kts | 304° |
| 2026-05-05 00:32 | 36.87570 | 127.89633 | 23177 ft | 413 kts | 304° |
| 2026-05-05 00:33 | 36.89211 | 127.86715 | 22604 ft | 409 kts | 304° |
| 2026-05-05 00:33 | 36.90837 | 127.83817 | 22060 ft | 406 kts | 304° |
| 2026-05-05 00:33 | 36.92456 | 127.80930 | 21480 ft | 403 kts | 304° |
| 2026-05-05 00:33 | 36.94063 | 127.78069 | 20938 ft | 401 kts | 304° |
| 2026-05-05 00:34 | 36.95665 | 127.75223 | 20379 ft | 399 kts | 304° |
| 2026-05-05 00:34 | 36.97257 | 127.72389 | 19826 ft | 397 kts | 304° |
| 2026-05-05 00:34 | 36.98837 | 127.69575 | 19428 ft | 393 kts | 304° |
| 2026-05-05 00:34 | 37.00414 | 127.66765 | 19181 ft | 397 kts | 304° |
| 2026-05-05 00:35 | 37.02004 | 127.63926 | 18943 ft | 398 kts | 304° |
| 2026-05-05 00:35 | 37.03570 | 127.61127 | 18711 ft | 397 kts | 304° |
| 2026-05-05 00:35 | 37.05148 | 127.58304 | 18473 ft | 396 kts | 304° |
| 2026-05-05 00:35 | 37.06725 | 127.55480 | 18209 ft | 395 kts | 304° |
| 2026-05-05 00:36 | 37.08294 | 127.52669 | 17940 ft | 393 kts | 304° |
| 2026-05-05 00:36 | 37.09861 | 127.49860 | 17673 ft | 392 kts | 304° |
| 2026-05-05 00:36 | 37.11419 | 127.47064 | 17416 ft | 390 kts | 304° |
| 2026-05-05 00:36 | 37.12970 | 127.44275 | 17156 ft | 389 kts | 304° |
| 2026-05-05 00:37 | 37.14514 | 127.41500 | 16896 ft | 388 kts | 304° |
| 2026-05-05 00:37 | 37.16055 | 127.38730 | 16645 ft | 386 kts | 304° |
| 2026-05-05 00:37 | 37.17587 | 127.35970 | 16411 ft | 385 kts | 304° |
| 2026-05-05 00:37 | 37.19112 | 127.33211 | 16151 ft | 384 kts | 303° |
| 2026-05-05 00:38 | 37.20629 | 127.30462 | 15901 ft | 383 kts | 303° |
| 2026-05-05 00:38 | 37.22144 | 127.27721 | 15656 ft | 382 kts | 303° |
| 2026-05-05 00:38 | 37.23652 | 127.24988 | 15410 ft | 380 kts | 303° |
| 2026-05-05 00:38 | 37.25156 | 127.22262 | 15176 ft | 379 kts | 303° |
| 2026-05-05 00:39 | 37.26655 | 127.19540 | 14921 ft | 378 kts | 303° |
| 2026-05-05 00:39 | 37.28134 | 127.16859 | 14689 ft | 377 kts | 303° |
| 2026-05-05 00:39 | 37.29627 | 127.14146 | 14461 ft | 376 kts | 303° |
| 2026-05-05 00:39 | 37.31111 | 127.11448 | 14227 ft | 375 kts | 303° |
| 2026-05-05 00:40 | 37.32589 | 127.08749 | 13992 ft | 374 kts | 303° |
| 2026-05-05 00:40 | 37.34065 | 127.06059 | 13732 ft | 372 kts | 303° |
| 2026-05-05 00:40 | 37.35039 | 127.04291 | 13548 ft | 371 kts | 303° |
| 2026-05-05 00:40 | 37.36977 | 127.00760 | 13205 ft | 369 kts | 303° |
| 2026-05-05 00:41 | 37.38430 | 126.98109 | 13033 ft | 367 kts | 303° |
| 2026-05-05 00:41 | 37.39874 | 126.95479 | 13009 ft | 359 kts | 303° |
| 2026-05-05 00:41 | 37.41286 | 126.92990 | 13010 ft | 340 kts | 306° |
| 2026-05-05 00:41 | 37.42782 | 126.90794 | 12925 ft | 321 kts | 310° |
| 2026-05-05 00:42 | 37.43778 | 126.89415 | 12588 ft | 309 kts | 310° |
| 2026-05-05 00:42 | 37.45111 | 126.87583 | 11893 ft | 302 kts | 310° |
| 2026-05-05 00:42 | 37.46535 | 126.85621 | 11224 ft | 305 kts | 310° |
| 2026-05-05 00:42 | 37.47952 | 126.83666 | 10945 ft | 299 kts | 310° |
| 2026-05-05 00:43 | 37.49340 | 126.81749 | 10624 ft | 294 kts | 310° |
| 2026-05-05 00:43 | 37.50714 | 126.79848 | 10296 ft | 291 kts | 310° |
| 2026-05-05 00:43 | 37.52054 | 126.77992 | 10124 ft | 281 kts | 310° |
| 2026-05-05 00:43 | 37.53358 | 126.76210 | 9961 ft | 271 kts | 310° |
| 2026-05-05 00:44 | 37.54592 | 126.74525 | 9685 ft | 253 kts | 310° |
| 2026-05-05 00:44 | 37.55762 | 126.72928 | 9247 ft | 244 kts | 310° |
| 2026-05-05 00:44 | 37.56896 | 126.71359 | 8700 ft | 240 kts | 309° |
| 2026-05-05 00:44 | 37.58011 | 126.69808 | 8340 ft | 239 kts | 309° |
| 2026-05-05 00:45 | 37.59131 | 126.68250 | 8026 ft | 239 kts | 309° |
| 2026-05-05 00:45 | 37.60245 | 126.66699 | 7742 ft | 238 kts | 309° |
| 2026-05-05 00:45 | 37.61312 | 126.65215 | 7457 ft | 237 kts | 309° |
| 2026-05-05 00:45 | 37.62395 | 126.63689 | 7184 ft | 235 kts | 307° |
| 2026-05-05 00:46 | 37.63242 | 126.61958 | 6897 ft | 231 kts | 292° |
| 2026-05-05 00:46 | 37.63859 | 126.60096 | 6625 ft | 228 kts | 289° |
| 2026-05-05 00:46 | 37.64441 | 126.58237 | 6295 ft | 228 kts | 289° |
| 2026-05-05 00:46 | 37.65020 | 126.56402 | 5899 ft | 223 kts | 289° |
| 2026-05-05 00:47 | 37.65601 | 126.54573 | 5569 ft | 224 kts | 289° |
| 2026-05-05 00:47 | 37.66142 | 126.52859 | 5300 ft | 223 kts | 288° |
| 2026-05-05 00:47 | 37.66715 | 126.51049 | 4997 ft | 222 kts | 289° |
| 2026-05-05 00:47 | 37.67154 | 126.49187 | 4695 ft | 219 kts | 277° |
| 2026-05-05 00:48 | 37.67380 | 126.47299 | 4418 ft | 216 kts | 274° |
| 2026-05-05 00:48 | 37.67564 | 126.45444 | 4143 ft | 216 kts | 274° |
| 2026-05-05 00:48 | 37.67752 | 126.43560 | 3848 ft | 216 kts | 274° |
| 2026-05-05 00:48 | 37.67930 | 126.41693 | 3584 ft | 213 kts | 271° |
| 2026-05-05 00:49 | 37.67869 | 126.39847 | 3373 ft | 209 kts | 259° |
| 2026-05-05 00:49 | 37.67647 | 126.38071 | 3272 ft | 200 kts | 257° |
| 2026-05-05 00:49 | 37.67418 | 126.36375 | 3164 ft | 191 kts | 257° |
| 2026-05-05 00:49 | 37.67058 | 126.34827 | 3051 ft | 179 kts | 239° |
| 2026-05-05 00:50 | 37.66253 | 126.33699 | 3002 ft | 171 kts | 218° |
| 2026-05-05 00:50 | 37.65299 | 126.32790 | 2995 ft | 172 kts | 216° |
| 2026-05-05 00:50 | 37.64273 | 126.32013 | 2992 ft | 172 kts | 204° |
| 2026-05-05 00:50 | 37.63098 | 126.31701 | 2986 ft | 175 kts | 181° |
| 2026-05-05 00:51 | 37.61909 | 126.32048 | 2994 ft | 178 kts | 160° |
| 2026-05-05 00:51 | 37.60864 | 126.32875 | 3001 ft | 181 kts | 147° |
| 2026-05-05 00:51 | 37.59843 | 126.33808 | 2851 ft | 181 kts | 149° |
| 2026-05-05 00:51 | 37.58807 | 126.34717 | 2594 ft | 181 kts | 149° |
| 2026-05-05 00:52 | 37.57787 | 126.35628 | 2342 ft | 177 kts | 149° |
| 2026-05-05 00:52 | 37.56809 | 126.36505 | 2105 ft | 167 kts | 149° |
| 2026-05-05 00:52 | 37.55884 | 126.37329 | 1881 ft | 160 kts | 149° |
| 2026-05-05 00:52 | 37.54976 | 126.38138 | 1664 ft | 159 kts | 148° |
| 2026-05-05 00:53 | 37.54085 | 126.38936 | 1444 ft | 153 kts | 148° |
| 2026-05-05 00:53 | 37.53252 | 126.39681 | 1233 ft | 142 kts | 148° |
| 2026-05-05 00:53 | 37.52477 | 126.40373 | 1045 ft | 131 kts | 148° |
| 2026-05-05 00:53 | 37.51751 | 126.41020 | 856 ft | 126 kts | 147° |
| 2026-05-05 00:54 | 37.51042 | 126.41641 | 730 ft | 126 kts | 147° |
| 2026-05-05 00:54 | 37.50322 | 126.42267 | 517 ft | 124 kts | 146° |
| 2026-05-05 00:54 | 37.49628 | 126.42916 | 357 ft | 124 kts | 143° |
| 2026-05-05 00:54 | 37.48928 | 126.43553 | 212 ft | 124 kts | 146° |
| 2026-05-05 00:55 | 37.48222 | 126.44172 | 48 ft | 123 kts | 146° |
| 2026-05-05 00:55 | 37.47603 | 126.44720 | 38 ft | 90 kts | 144° |
| 2026-05-05 00:55 | 37.47179 | 126.45099 | 39 ft | 62 kts | 144° |
| 2026-05-05 00:55 | 37.46959 | 126.45293 | 39 ft | 33 kts | 146° |
| 2026-05-05 00:56 | 37.46759 | 126.45397 | 39 ft | 28 kts | 171° |
| 2026-05-05 00:56 | 37.46622 | 126.45414 | 39 ft | 13 kts | 174° |
| 2026-05-05 00:56 | 37.46528 | 126.45430 | 39 ft | 14 kts | 167° |
| 2026-05-05 00:56 | 37.46459 | 126.45474 | 39 ft | 10 kts | 144° |
| 2026-05-05 00:57 | 37.46406 | 126.45509 | 39 ft | 7 kts | 172° |
| 2026-05-05 00:57 | 37.46357 | 126.45475 | 39 ft | 9 kts | 227° |
| 2026-05-05 00:57 | 37.46311 | 126.45397 | 39 ft | 13 kts | 234° |
| 2026-05-05 00:57 | 37.46255 | 126.45298 | 39 ft | 14 kts | 232° |
| 2026-05-05 00:58 | 37.46181 | 126.45214 | 39 ft | 15 kts | 207° |
| 2026-05-05 00:58 | 37.46086 | 126.45231 | 39 ft | 15 kts | 147° |
| 2026-05-05 00:58 | 37.45995 | 126.45312 | 39 ft | 17 kts | 143° |
| 2026-05-05 00:58 | 37.45893 | 126.45402 | 39 ft | 16 kts | 143° |
| 2026-05-05 00:59 | 37.45823 | 126.45464 | 36 ft | 10 kts | 145° |
| 2026-05-05 00:59 | 37.45757 | 126.45464 | 39 ft | 11 kts | 212° |
| 2026-05-05 00:59 | 37.45702 | 126.45385 | 39 ft | 14 kts | 232° |
| 2026-05-05 00:59 | 37.45649 | 126.45291 | 39 ft | 10 kts | 233° |
| 2026-05-05 01:00 | 37.45584 | 126.45265 | 39 ft | 11 kts | 172° |
| 2026-05-05 01:00 | 37.45507 | 126.45291 | 36 ft | 13 kts | 164° |
| 2026-05-05 01:00 | 37.45434 | 126.45308 | 39 ft | 11 kts | 184° |
| 2026-05-05 01:00 | 37.45397 | 126.45270 | 39 ft | 6 kts | 239° |
| 2026-05-05 01:01 | 37.45381 | 126.45234 | 39 ft | 0 kts | 242° |
| 2026-05-05 01:01 | 37.45381 | 126.45232 | 39 ft | 0 kts | 242° |